Time;durP1;ratioP1;P1;durP2;ratioP2;P2;SDS_P1;SDS_P2;PMS_P1;PMS_P2;Temp;Humidity;BMP_temperature;BMP_pressure;BME280_temperature;BME280_humidity;BME280_pressure;Samples;Min_cycle;Max_cycle;Signal;HPM_P1;HPM_P2
2023/07/02 00:00:30;;;;;;;;;32.75;22.75;;;;;19.10;53.57;100535.06;5054722;28;45842;-85
2023/07/02 00:02:55;;;;;;;;;29.75;27.00;;;;;19.13;52.93;100550.66;5055968;28;45798;-87
2023/07/02 00:05:21;;;;;;;;;34.00;29.75;;;;;19.11;53.13;100543.84;5056731;28;46956;-86
2023/07/02 00:07:46;;;;;;;;;34.50;27.50;;;;;19.06;53.58;100539.00;5056947;28;45854;-85
2023/07/02 00:10:11;;;;;;;;;40.75;32.75;;;;;19.06;53.65;100552.28;5057553;28;45597;-87
2023/07/02 00:15:59;;;;;;;;;34.25;26.75;;;;;18.93;54.08;100535.19;5055208;28;46140;-84
2023/07/02 00:18:33;;;;;;;;;43.75;31.50;;;;;18.89;53.92;100534.72;5053346;28;45789;-87
2023/07/02 00:21:00;;;;;;;;;35.00;31.50;;;;;18.90;54.31;100539.00;5056005;28;45601;-86
2023/07/02 00:23:25;;;;;;;;;40.00;30.25;;;;;18.84;54.40;100531.69;5071447;28;47654;-85
2023/07/02 00:25:50;;;;;;;;;36.50;28.00;;;;;18.82;54.28;100542.50;5055364;28;46001;-85
2023/07/02 00:28:17;;;;;;;;;37.00;32.25;;;;;18.82;54.68;100539.00;5071389;28;45995;-86
2023/07/02 00:30:42;;;;;;;;;37.75;31.75;;;;;18.74;54.29;100544.28;5056549;28;45888;-88
2023/07/02 00:33:08;;;;;;;;;35.75;30.25;;;;;18.74;54.41;100531.00;5056918;28;45615;-86
2023/07/02 00:35:33;;;;;;;;;40.75;31.25;;;;;18.69;55.24;100533.31;5053890;28;46857;-86
2023/07/02 00:37:59;;;;;;;;;36.75;30.75;;;;;18.66;54.95;100539.81;5055836;28;45668;-87
2023/07/02 00:40:24;;;;;;;;;36.75;30.25;;;;;18.64;55.21;100539.13;5059040;28;45617;-87
2023/07/02 00:46:19;;;;;;;;;42.25;31.50;;;;;18.58;55.62;100552.22;5056892;28;46126;-84
2023/07/02 00:48:47;;;;;;;;;34.75;28.75;;;;;18.55;55.68;100532.16;5074754;27;45511;-86
2023/07/02 00:51:21;;;;;;;;;40.25;30.75;;;;;18.54;55.75;100535.78;5058774;28;45641;-85
2023/07/02 00:53:48;;;;;;;;;33.50;29.50;;;;;18.49;55.89;100546.03;5058364;28;46543;-87
2023/07/02 00:56:14;;;;;;;;;39.75;31.50;;;;;18.40;55.63;100531.09;5056749;28;48062;-87
2023/07/02 00:58:48;;;;;;;;;34.00;30.50;;;;;18.38;56.28;100539.19;5056479;28;45712;-90
2023/07/02 01:01:20;;;;;;;;;37.75;31.25;;;;;18.39;56.04;100545.34;5054546;28;45673;-86
2023/07/02 01:04:00;;;;;;;;;31.00;26.50;;;;;18.31;56.40;100537.34;5052354;28;47752;-88
2023/07/02 01:06:30;;;;;;;;;41.00;31.50;;;;;18.27;56.41;100534.19;5055713;28;46061;-88
2023/07/02 01:08:58;;;;;;;;;34.75;28.75;;;;;18.19;56.50;100531.50;5055586;28;45761;-86
2023/07/02 01:11:27;;;;;;;;;28.25;24.75;;;;;18.15;56.51;100542.59;5055594;28;45766;-87
2023/07/02 01:13:58;;;;;;;;;35.25;30.00;;;;;18.15;56.95;100547.88;5056294;28;45631;-89
2023/07/02 01:16:23;;;;;;;;;36.50;30.00;;;;;18.04;56.85;100546.34;5056363;28;46205;-86
2023/07/02 01:18:54;;;;;;;;;31.50;27.75;;;;;18.02;56.65;100548.34;5054945;28;45629;-86
2023/07/02 01:21:20;;;;;;;;;35.75;31.75;;;;;17.98;57.48;100554.94;5057754;28;45601;-88
2023/07/02 01:23:46;;;;;;;;;31.75;28.00;;;;;17.99;57.00;100569.84;5062657;28;48118;-87
2023/07/02 01:26:12;;;;;;;;;36.75;27.00;;;;;17.94;57.77;100561.53;5066391;28;46248;-86
2023/07/02 01:28:38;;;;;;;;;45.50;32.25;;;;;17.93;57.22;100570.47;5077336;28;45340;-84
2023/07/02 01:31:05;;;;;;;;;38.75;29.25;;;;;17.90;57.44;100566.34;5053711;28;45649;-85
2023/07/02 01:33:30;;;;;;;;;34.50;30.50;;;;;17.86;58.09;100559.69;5055944;28;45709;-84
2023/07/02 01:35:56;;;;;;;;;34.00;27.75;;;;;17.86;57.95;100566.81;5053826;28;45708;-83
2023/07/02 01:38:22;;;;;;;;;35.50;30.00;;;;;17.82;58.19;100555.66;5052466;28;45703;-83
2023/07/02 01:40:47;;;;;;;;;36.00;31.25;;;;;17.73;57.78;100556.63;5051407;28;45601;-85
2023/07/02 01:46:34;;;;;;;;;30.00;24.75;;;;;17.65;58.81;100553.94;5052795;28;46532;-86
2023/07/02 01:48:59;;;;;;;;;38.25;31.50;;;;;17.61;58.74;100556.03;5052724;28;45678;-85
2023/07/02 01:51:25;;;;;;;;;34.75;28.50;;;;;17.54;59.26;100552.31;5052868;28;45716;-85
2023/07/02 01:53:50;;;;;;;;;35.25;30.00;;;;;17.55;58.87;100553.16;5052995;28;45711;-87
2023/07/02 01:56:15;;;;;;;;;29.50;22.75;;;;;17.48;59.36;100557.41;5053408;28;45790;-85
2023/07/02 02:02:03;;;;;;;;;34.00;26.00;;;;;17.39;59.81;100558.31;5056302;28;45774;-85
2023/07/02 02:04:28;;;;;;;;;34.00;28.75;;;;;17.34;59.84;100550.00;5056619;28;46748;-85
2023/07/02 02:06:54;;;;;;;;;37.00;27.25;;;;;17.34;60.07;100556.16;5057265;28;46105;-86
2023/07/02 02:09:19;;;;;;;;;27.00;23.25;;;;;17.31;60.01;100558.28;5056879;28;45628;-84
2023/07/02 02:11:48;;;;;;;;;37.25;31.25;;;;;17.35;59.99;100551.69;5073630;28;45891;-88
2023/07/02 02:14:13;;;;;;;;;29.25;24.75;;;;;17.28;59.89;100555.91;5056818;28;46407;-87
2023/07/02 02:16:39;;;;;;;;;30.50;25.50;;;;;17.28;60.34;100571.81;5057156;28;46547;-85
2023/07/02 02:19:05;;;;;;;;;40.50;32.00;;;;;17.28;60.73;100561.22;5057895;28;45464;-87
2023/07/02 02:21:31;;;;;;;;;32.00;26.25;;;;;17.21;60.45;100558.38;5058765;28;45503;-88
2023/07/02 02:23:56;;;;;;;;;23.25;23.25;;;;;17.26;60.39;100563.19;5072649;28;47863;-88
2023/07/02 02:26:22;;;;;;;;;33.25;25.25;;;;;17.20;60.64;100568.13;5057772;28;45676;-87
2023/07/02 02:32:09;;;;;;;;;33.00;28.00;;;;;17.24;60.48;100573.94;5060622;28;45734;-87
2023/07/02 02:34:35;;;;;;;;;34.25;27.50;;;;;17.21;60.70;100587.50;5056550;28;45780;-89
2023/07/02 02:37:00;;;;;;;;;32.00;26.75;;;;;17.22;60.91;100570.59;5056612;28;45823;-88
2023/07/02 02:39:25;;;;;;;;;34.25;30.25;;;;;17.21;61.20;100568.97;5055959;28;46235;-86
2023/07/02 02:41:51;;;;;;;;;35.25;28.00;;;;;17.18;61.14;100559.50;5057322;28;45676;-87
2023/07/02 02:44:16;;;;;;;;;28.75;23.50;;;;;17.19;61.07;100571.75;5056924;28;45734;-86
2023/07/02 02:46:41;;;;;;;;;39.25;29.25;;;;;17.17;61.28;100563.13;5055306;28;45691;-86
2023/07/02 02:49:07;;;;;;;;;33.50;26.00;;;;;17.18;61.34;100571.91;5058904;28;45609;-86
2023/07/02 02:51:32;;;;;;;;;35.00;26.00;;;;;17.15;61.41;100569.56;5074158;28;45973;-86
2023/07/02 02:53:57;;;;;;;;;31.25;25.50;;;;;17.13;61.20;100576.81;5056914;28;45615;-89
2023/07/02 02:56:23;;;;;;;;;35.25;28.00;;;;;17.08;61.67;100568.50;5059816;28;46373;-87
2023/07/02 03:02:10;;;;;;;;;26.25;22.50;;;;;17.01;61.75;100564.78;5056460;28;45916;-86
2023/07/02 03:04:39;;;;;;;;;34.75;26.75;;;;;16.98;61.89;100575.69;5056308;28;46575;-88
2023/07/02 03:07:05;;;;;;;;;32.25;24.25;;;;;16.98;61.96;100580.97;5057712;28;45745;-87
2023/07/02 03:09:30;;;;;;;;;31.75;25.50;;;;;16.92;61.75;100568.34;5058434;28;45743;-86
2023/07/02 03:11:55;;;;;;;;;29.25;24.75;;;;;16.93;62.29;100580.59;5059064;28;45816;-86
2023/07/02 03:17:43;;;;;;;;;28.00;24.75;;;;;16.83;62.29;100578.03;5055352;28;45714;-84
2023/07/02 03:20:08;;;;;;;;;31.00;27.50;;;;;16.79;62.56;100580.13;5057617;28;45724;-87
2023/07/02 03:22:34;;;;;;;;;32.00;25.50;;;;;16.77;62.73;100587.41;5058503;28;45823;-86
2023/07/02 03:25:00;;;;;;;;;28.00;23.75;;;;;16.75;63.00;100576.13;5057822;28;46571;-86
2023/07/02 03:27:25;;;;;;;;;29.75;24.75;;;;;16.72;62.91;100588.84;5056456;28;46250;-89
2023/07/02 03:29:52;;;;;;;;;26.00;24.25;;;;;16.67;63.16;100578.69;5055793;28;45850;-86
2023/07/02 03:32:17;;;;;;;;;30.50;26.00;;;;;16.67;63.40;100583.16;5058457;28;45803;-85
2023/07/02 03:34:42;;;;;;;;;30.75;27.50;;;;;16.71;63.05;100581.88;5056783;28;48139;-86
2023/07/02 03:37:07;;;;;;;;;27.50;20.75;;;;;16.70;63.20;100593.44;5057654;28;46108;-87
2023/07/02 03:39:34;;;;;;;;;32.25;27.75;;;;;16.70;63.12;100599.56;5058673;28;45549;-86
2023/07/02 03:41:59;;;;;;;;;33.00;23.00;;;;;16.74;63.44;100608.84;5058436;28;45848;-87
2023/07/02 03:47:47;;;;;;;;;28.50;24.50;;;;;16.72;63.35;100605.53;5057279;28;45734;-86
2023/07/02 03:50:12;;;;;;;;;27.50;22.50;;;;;16.67;63.40;100604.31;5057221;28;45696;-86
2023/07/02 03:52:37;;;;;;;;;31.00;25.50;;;;;16.64;63.43;100608.06;5056886;28;45572;-87
2023/07/02 03:55:04;;;;;;;;;29.25;25.00;;;;;16.65;63.92;100622.97;5056792;28;45668;-88
2023/07/02 03:57:30;;;;;;;;;32.00;28.00;;;;;16.62;64.22;100619.81;5056085;28;46392;-89
2023/07/02 03:59:55;;;;;;;;;28.25;23.50;;;;;16.60;64.06;100614.66;5054662;28;45716;-87
2023/07/02 04:02:21;;;;;;;;;29.00;21.50;;;;;16.61;64.02;100628.72;5057119;28;45749;-87
2023/07/02 04:04:46;;;;;;;;;32.75;23.25;;;;;16.61;63.88;100634.84;5056461;28;47620;-87
2023/07/02 04:07:11;;;;;;;;;16.25;13.50;;;;;16.60;63.97;100619.94;5055250;28;47273;-86
2023/07/02 04:09:37;;;;;;;;;29.50;24.25;;;;;16.58;64.04;100616.56;5056116;28;45624;-86
2023/07/02 04:12:05;;;;;;;;;26.25;22.00;;;;;16.57;64.32;100622.84;5058139;28;45687;-87
2023/07/02 04:17:52;;;;;;;;;32.50;24.00;;;;;16.55;64.10;100614.22;5057711;28;45858;-88
2023/07/02 04:20:18;;;;;;;;;28.25;22.00;;;;;16.59;64.29;100626.22;5057600;28;45671;-87
2023/07/02 04:22:44;;;;;;;;;28.75;24.75;;;;;16.55;64.75;100616.88;5056741;28;45613;-86
2023/07/02 04:25:14;;;;;;;;;27.25;22.00;;;;;16.56;64.65;100617.72;5056587;28;46814;-87
2023/07/02 04:27:43;;;;;;;;;25.25;20.50;;;;;16.59;64.83;100631.50;5055035;28;46048;-87
2023/07/02 04:30:10;;;;;;;;;27.50;25.25;;;;;16.56;64.58;100618.53;5056328;28;45952;-87
2023/07/02 04:32:39;;;;;;;;;25.75;23.50;;;;;16.60;64.58;100645.56;5056458;28;45780;-89
2023/07/02 04:35:05;;;;;;;;;24.50;21.75;;;;;16.56;64.54;100629.13;5055853;28;45583;-89
2023/07/02 04:37:30;;;;;;;;;29.75;22.75;;;;;16.57;64.73;100625.47;5056227;28;46171;-87
2023/07/02 04:39:56;;;;;;;;;28.00;23.25;;;;;16.61;64.92;100636.66;5056252;28;45754;-89
2023/07/02 04:42:21;;;;;;;;;32.00;25.25;;;;;16.60;64.52;100629.69;5057730;28;46075;-85
2023/07/02 04:48:08;;;;;;;;;24.25;21.75;;;;;16.63;64.75;100639.97;5059439;28;45587;-90
2023/07/02 04:50:34;;;;;;;;;27.25;21.75;;;;;16.63;64.82;100634.66;5061758;28;45631;-87
2023/07/02 04:52:59;;;;;;;;;22.50;18.75;;;;;16.65;65.16;100640.66;5061798;28;45530;-88
2023/07/02 04:55:24;;;;;;;;;26.75;18.50;;;;;16.67;64.94;100636.06;5061111;28;45529;-87
2023/07/02 04:57:50;;;;;;;;;27.25;22.00;;;;;16.67;64.86;100644.84;5065757;28;47103;-85
2023/07/02 05:00:16;;;;;;;;;18.00;15.50;;;;;16.68;65.20;100643.03;5072045;28;45474;-84
2023/07/02 05:02:41;;;;;;;;;30.25;23.75;;;;;16.69;64.59;100642.84;5083316;28;45693;-83
2023/07/02 05:05:07;;;;;;;;;22.75;21.00;;;;;16.69;64.75;100642.03;5054926;28;46120;-83
2023/07/02 05:07:33;;;;;;;;;24.00;20.25;;;;;16.71;64.94;100646.19;5054261;28;47461;-82
2023/07/02 05:09:58;;;;;;;;;26.50;22.00;;;;;16.73;64.83;100640.78;5053981;28;45812;-84
2023/07/02 05:12:24;;;;;;;;;27.50;22.00;;;;;16.67;64.92;100623.66;5057046;28;45708;-83
2023/07/02 05:18:11;;;;;;;;;28.25;20.00;;;;;16.77;64.43;100642.13;5056591;28;45598;-84
2023/07/02 05:20:36;;;;;;;;;29.50;21.25;;;;;16.80;64.55;100644.47;5058868;28;45661;-85
2023/07/02 05:23:02;;;;;;;;;26.75;19.00;;;;;16.79;64.89;100648.94;5054604;28;45674;-84
2023/07/02 05:25:27;;;;;;;;;25.00;21.25;;;;;16.83;64.99;100643.34;5058266;28;46305;-87
2023/07/02 05:27:52;;;;;;;;;23.50;19.00;;;;;16.87;64.67;100642.91;5074305;28;48071;-87
2023/07/02 05:33:39;;;;;;;;;23.75;19.75;;;;;16.90;64.51;100650.53;5058709;28;45684;-87
2023/07/02 05:36:05;;;;;;;;;24.25;19.75;;;;;16.93;64.65;100649.41;5057333;28;45714;-86
2023/07/02 05:38:30;;;;;;;;;24.25;20.25;;;;;17.00;64.37;100661.09;5073887;28;47244;-86
2023/07/02 05:40:56;;;;;;;;;21.75;18.25;;;;;17.03;64.38;100666.06;5058657;28;45751;-85
2023/07/02 05:43:21;;;;;;;;;23.50;19.00;;;;;17.05;64.34;100672.06;5056983;28;45639;-84
2023/07/02 05:45:46;;;;;;;;;28.00;22.50;;;;;17.07;64.48;100662.13;5057123;28;45907;-88
2023/07/02 05:48:12;;;;;;;;;23.50;22.00;;;;;17.04;64.65;100668.56;5057568;28;45690;-89
2023/07/02 05:50:37;;;;;;;;;24.50;20.00;;;;;17.09;64.00;100674.25;5057723;28;46194;-85
2023/07/02 05:53:02;;;;;;;;;22.25;20.25;;;;;17.08;64.22;100669.94;5056632;28;45571;-88
2023/07/02 05:55:28;;;;;;;;;27.00;22.00;;;;;17.11;64.40;100674.91;5059692;28;46861;-88
2023/07/02 05:57:53;;;;;;;;;26.75;20.25;;;;;17.12;64.08;100660.69;5056469;28;48265;-87
2023/07/02 06:03:40;;;;;;;;;24.50;20.00;;;;;17.22;64.38;100675.72;5055403;28;45864;-88
2023/07/02 06:06:06;;;;;;;;;21.75;19.75;;;;;17.25;64.34;100668.28;5055339;28;46542;-88
2023/07/02 06:08:31;;;;;;;;;30.00;19.50;;;;;17.25;64.18;100670.94;5056160;28;45918;-87
2023/07/02 06:10:56;;;;;;;;;23.00;20.75;;;;;17.27;64.13;100665.50;5059363;28;45804;-86
2023/07/02 06:13:22;;;;;;;;;30.25;20.25;;;;;17.33;64.12;100676.28;5056001;28;45665;-86
2023/07/02 06:15:47;;;;;;;;;21.25;18.50;;;;;17.34;64.16;100683.28;5056283;28;45778;-88
2023/07/02 06:18:13;;;;;;;;;26.75;20.50;;;;;17.32;63.74;100677.31;5057000;28;45738;-83
2023/07/02 06:20:38;;;;;;;;;24.75;18.50;;;;;17.35;64.19;100674.34;5057018;28;45787;-86
2023/07/02 06:23:03;;;;;;;;;31.25;21.25;;;;;17.34;64.03;100677.97;5056138;28;45780;-87
2023/07/02 06:25:29;;;;;;;;;25.25;23.00;;;;;17.38;63.98;100687.28;5055748;28;45754;-85
2023/07/02 06:27:57;;;;;;;;;22.25;18.00;;;;;17.41;63.89;100689.63;5055301;28;45704;-86
2023/07/02 06:33:44;;;;;;;;;20.25;17.75;;;;;17.49;63.98;100697.66;5055678;28;45626;-86
2023/07/02 06:36:10;;;;;;;;;24.75;21.25;;;;;17.56;63.75;100689.94;5055721;28;45695;-86
2023/07/02 06:38:35;;;;;;;;;22.25;19.75;;;;;17.57;63.52;100695.09;5054852;28;45831;-87
2023/07/02 06:41:01;;;;;;;;;30.75;23.25;;;;;17.58;63.40;100691.47;5056230;28;45836;-87
2023/07/02 06:43:26;;;;;;;;;22.00;19.50;;;;;17.65;63.46;100698.84;5055025;28;45805;-87
2023/07/02 06:49:13;;;;;;;;;26.25;23.00;;;;;17.73;63.59;100709.50;5055405;28;46250;-87
2023/07/02 06:51:39;;;;;;;;;26.50;20.00;;;;;17.77;63.58;100710.84;5054264;28;45652;-87
2023/07/02 06:54:05;;;;;;;;;24.25;19.75;;;;;17.79;63.59;100703.59;5056789;28;45655;-86
2023/07/02 06:56:32;;;;;;;;;25.75;21.25;;;;;17.81;63.05;100712.22;5056963;28;45758;-87
2023/07/02 06:58:58;;;;;;;;;25.75;21.25;;;;;17.83;63.03;100708.41;5054729;28;47176;-87
2023/07/02 07:01:23;;;;;;;;;23.00;21.25;;;;;17.90;62.84;100719.25;5057354;28;45707;-87
2023/07/02 07:03:48;;;;;;;;;27.25;22.50;;;;;17.93;62.70;100732.19;5056948;28;45524;-87
2023/07/02 07:06:13;;;;;;;;;24.25;21.00;;;;;17.94;62.78;100710.00;5056978;28;45679;-85
2023/07/02 07:08:39;;;;;;;;;23.75;22.50;;;;;17.92;62.71;100715.44;5057375;28;45724;-89
2023/07/02 07:11:04;;;;;;;;;24.50;20.00;;;;;17.91;62.49;100705.03;5057055;28;45777;-85
2023/07/02 07:13:30;;;;;;;;;24.25;19.50;;;;;17.96;62.49;100710.69;5054685;28;45705;-88
2023/07/02 07:19:17;;;;;;;;;26.25;24.00;;;;;17.94;62.60;100710.84;5054708;28;45761;-85
2023/07/02 07:21:43;;;;;;;;;25.25;21.50;;;;;17.99;62.82;100718.31;5056372;28;45623;-85
2023/07/02 07:24:09;;;;;;;;;25.50;23.50;;;;;17.99;62.38;100710.38;5055800;28;45547;-87
2023/07/02 07:26:34;;;;;;;;;24.00;20.25;;;;;18.02;62.31;100715.38;5055965;28;45681;-86
2023/07/02 07:28:59;;;;;;;;;27.00;24.25;;;;;18.05;62.19;100709.75;5072721;28;47585;-87
2023/07/02 07:31:25;;;;;;;;;22.25;20.00;;;;;18.10;62.60;100710.13;5057313;28;45663;-87
2023/07/02 07:33:50;;;;;;;;;21.75;20.50;;;;;18.13;62.59;100711.66;5056309;28;46077;-86
2023/07/02 07:36:16;;;;;;;;;17.00;14.00;;;;;18.18;61.78;100720.81;5056563;28;46346;-89
2023/07/02 07:38:43;;;;;;;;;27.25;22.00;;;;;18.24;61.79;100714.88;5057567;28;46943;-87
2023/07/02 07:41:08;;;;;;;;;23.00;18.75;;;;;18.25;62.17;100711.22;5056884;28;45625;-87
2023/07/02 07:43:34;;;;;;;;;23.00;19.50;;;;;18.29;62.19;100717.91;5055398;28;45914;-89
2023/07/02 07:49:21;;;;;;;;;30.25;24.25;;;;;18.39;61.47;100713.31;5055097;28;46064;-89
2023/07/02 07:51:47;;;;;;;;;27.75;20.00;;;;;18.46;61.81;100713.53;5055612;28;45821;-89
2023/07/02 07:54:12;;;;;;;;;23.00;21.25;;;;;18.54;61.27;100718.88;5058982;28;45815;-88
2023/07/02 07:56:37;;;;;;;;;27.00;20.50;;;;;18.62;61.28;100726.91;5055556;28;45722;-88
2023/07/02 07:59:03;;;;;;;;;29.00;24.25;;;;;18.68;60.94;100726.25;5057430;28;46109;-87
2023/07/02 08:04:50;;;;;;;;;30.25;20.75;;;;;18.75;60.70;100737.91;5056776;28;45748;-86
2023/07/02 08:07:15;;;;;;;;;22.75;21.25;;;;;18.76;60.28;100734.28;5070460;28;46222;-88
2023/07/02 08:09:41;;;;;;;;;23.50;21.00;;;;;18.78;60.26;100731.47;5054497;28;45660;-91
2023/07/02 08:12:07;;;;;;;;;26.50;23.50;;;;;18.83;60.33;100742.44;5053200;28;46001;-87
2023/07/02 08:14:32;;;;;;;;;29.00;23.00;;;;;18.85;59.96;100729.81;5054028;28;45911;-84
2023/07/02 08:16:58;;;;;;;;;23.00;18.75;;;;;18.86;60.23;100727.00;5053678;28;46500;-86
2023/07/02 08:19:23;;;;;;;;;25.75;21.25;;;;;18.95;60.12;100732.38;5055122;28;46111;-85
2023/07/02 08:21:48;;;;;;;;;24.50;20.75;;;;;19.03;59.78;100727.91;5055177;28;46183;-87
2023/07/02 08:24:14;;;;;;;;;26.50;21.50;;;;;19.08;59.29;100733.56;5055929;28;45795;-87
2023/07/02 08:26:39;;;;;;;;;23.00;18.75;;;;;19.11;59.47;100733.22;5052518;28;47519;-85
2023/07/02 08:29:04;;;;;;;;;24.50;18.75;;;;;19.16;59.00;100733.59;5053886;28;45538;-85
2023/07/02 08:34:52;;;;;;;;;23.25;20.25;;;;;19.25;58.26;100737.13;5056662;28;45776;-84
2023/07/02 08:37:18;;;;;;;;;24.75;21.50;;;;;19.25;57.91;100737.13;5072596;28;48192;-83
2023/07/02 08:39:43;;;;;;;;;19.75;18.25;;;;;19.28;57.99;100742.94;5057375;28;45801;-86
2023/07/02 08:42:08;;;;;;;;;23.25;18.75;;;;;19.31;58.23;100752.41;5059279;28;45780;-84
2023/07/02 08:44:35;;;;;;;;;20.75;19.75;;;;;19.33;58.03;100758.38;5067025;28;45582;-83
2023/07/02 08:47:01;;;;;;;;;23.25;19.75;;;;;19.32;57.71;100740.81;5066677;28;47543;-87
2023/07/02 08:49:27;;;;;;;;;25.50;20.00;;;;;19.37;57.21;100748.28;5062853;28;47353;-83
2023/07/02 08:51:52;;;;;;;;;23.00;20.75;;;;;19.38;57.40;100742.78;5061000;28;45464;-84
2023/07/02 08:54:18;;;;;;;;;24.50;20.00;;;;;19.45;57.41;100743.84;5059258;28;45686;-85
2023/07/02 08:56:45;;;;;;;;;26.00;21.75;;;;;19.48;57.10;100737.38;5054690;28;46996;-83
2023/07/02 08:59:11;;;;;;;;;21.50;20.00;;;;;19.57;56.43;100749.66;5054623;28;46134;-87
2023/07/02 09:05:00;;;;;;;;;25.50;20.25;;;;;19.69;56.25;100741.22;5054736;28;45689;-85
2023/07/02 09:07:25;;;;;;;;;23.00;20.00;;;;;19.75;55.52;100738.91;5055003;28;45910;-86
2023/07/02 09:09:51;;;;;;;;;21.00;18.50;;;;;19.78;55.45;100743.88;5056365;28;46981;-85
2023/07/02 09:12:34;;;;;;;;;23.00;17.75;;;;;19.80;55.24;100745.41;5057919;28;45784;-86
2023/07/02 09:15:03;;;;;;;;;14.25;9.75;;;;;19.79;55.00;100734.91;5057862;28;45745;-86
2023/07/02 09:17:33;;;;;;;;;24.00;20.75;;;;;19.87;54.90;100730.41;5057400;28;45675;-85
2023/07/02 09:20:00;;;;;;;;;19.25;18.00;;;;;19.93;54.69;100736.91;5058745;28;46024;-87
2023/07/02 09:22:26;;;;;;;;;16.00;14.25;;;;;19.96;52.90;100725.94;5057413;28;46151;-86
2023/07/02 09:24:57;;;;;;;;;19.75;15.00;;;;;20.01;52.28;100736.91;5074963;28;45870;-86
2023/07/02 09:27:34;;;;;;;;;19.00;16.50;;;;;20.02;52.56;100727.94;5059075;28;45706;-88
2023/07/02 09:30:06;;;;;;;;;17.50;15.75;;;;;20.02;52.89;100725.28;5074212;28;47160;-88
2023/07/02 09:32:32;;;;;;;;;17.25;14.75;;;;;20.06;53.00;100730.09;5061156;28;45581;-86
2023/07/02 09:34:58;;;;;;;;;20.25;19.00;;;;;20.09;53.04;100729.75;5062676;28;45605;-86
2023/07/02 09:37:24;;;;;;;;;17.25;16.50;;;;;20.16;52.37;100737.91;5060055;28;46274;-84
2023/07/02 09:39:54;;;;;;;;;14.50;10.75;;;;;20.19;52.28;100734.09;5061314;28;46218;-87
2023/07/02 09:42:21;;;;;;;;;15.25;11.50;;;;;20.21;51.38;100722.25;5060456;28;45681;-88
2023/07/02 09:44:47;;;;;;;;;18.00;16.25;;;;;20.30;51.07;100731.88;5060198;28;45704;-86
2023/07/02 09:50:34;;;;;;;;;20.50;15.25;;;;;20.42;51.04;100733.22;5058312;28;46062;-85
2023/07/02 09:53:00;;;;;;;;;14.50;10.25;;;;;20.44;50.74;100733.06;5059448;28;45882;-85
2023/07/02 09:55:26;;;;;;;;;17.00;15.25;;;;;20.50;50.94;100724.41;5058487;28;45660;-86
2023/07/02 09:57:51;;;;;;;;;15.50;14.00;;;;;20.51;50.67;100729.53;5057281;28;46399;-89
2023/07/02 10:00:17;;;;;;;;;15.75;13.00;;;;;20.58;50.32;100727.03;5059838;28;45988;-87
2023/07/02 10:02:48;;;;;;;;;16.00;14.00;;;;;20.57;50.11;100722.72;5058423;28;45712;-87
2023/07/02 10:05:25;;;;;;;;;19.50;17.00;;;;;20.69;49.75;100726.66;5058917;28;45695;-87
2023/07/02 10:07:51;;;;;;;;;16.25;14.25;;;;;20.78;49.83;100732.81;5057022;28;46783;-87
2023/07/02 10:10:29;;;;;;;;;18.75;16.50;;;;;20.81;48.15;100727.97;5056553;28;45773;-87
2023/07/02 10:12:55;;;;;;;;;17.75;16.25;;;;;20.88;48.79;100730.78;5056690;28;45776;-83
2023/07/02 10:15:28;;;;;;;;;17.50;16.00;;;;;20.93;48.30;100720.44;5058235;28;45570;-86
2023/07/02 10:17:58;;;;;;;;;14.50;13.00;;;;;21.02;47.47;100727.38;5056529;28;45801;-85
2023/07/02 10:20:38;;;;;;;;;16.25;13.50;;;;;21.07;47.66;100735.69;5055499;28;46285;-87
2023/07/02 10:23:05;;;;;;;;;18.50;14.50;;;;;21.10;47.71;100719.34;5056294;28;45972;-86
2023/07/02 10:25:34;;;;;;;;;20.25;16.50;;;;;21.12;47.08;100730.66;5056027;28;45750;-85
2023/07/02 10:28:01;;;;;;;;;16.00;14.25;;;;;21.15;47.36;100724.19;5070768;28;48782;-88
2023/07/02 10:30:35;;;;;;;;;19.25;15.25;;;;;21.18;47.78;100708.66;5056762;28;46201;-89
2023/07/02 10:33:15;;;;;;;;;16.50;14.25;;;;;21.18;46.72;100715.84;5057321;28;45640;-90
2023/07/02 10:35:42;;;;;;;;;16.50;14.00;;;;;21.23;46.57;100724.13;5059506;28;45834;-86
2023/07/02 10:38:14;;;;;;;;;15.25;12.50;;;;;21.25;46.90;100727.47;5056251;28;46600;-86
2023/07/02 10:40:39;;;;;;;;;21.00;16.00;;;;;21.22;45.75;100717.13;5055930;28;47566;-87
2023/07/02 10:43:05;;;;;;;;;16.75;15.25;;;;;21.24;46.17;100734.63;5055561;28;45859;-87
2023/07/02 10:45:35;;;;;;;;;18.00;15.50;;;;;21.27;46.04;100712.94;5055931;28;45599;-88
2023/07/02 10:48:09;;;;;;;;;18.00;16.75;;;;;21.26;45.81;100713.97;5054791;28;45823;-85
2023/07/02 10:50:34;;;;;;;;;20.25;14.25;;;;;21.24;46.11;100713.31;5056237;28;45775;-87
2023/07/02 10:53:00;;;;;;;;;16.75;13.50;;;;;21.30;46.04;100715.28;5056281;28;45705;-85
2023/07/02 10:55:27;;;;;;;;;19.50;15.75;;;;;21.34;45.72;100721.91;5056675;28;45745;-85
2023/07/02 10:58:07;;;;;;;;;18.25;15.00;;;;;21.32;45.67;100696.44;5056639;28;45800;-88
2023/07/02 11:00:33;;;;;;;;;15.75;14.50;;;;;21.40;45.74;100696.38;5056300;28;46041;-87
2023/07/02 11:02:59;;;;;;;;;13.25;12.75;;;;;21.53;46.15;100706.47;5058662;28;45692;-87
2023/07/02 11:05:25;;;;;;;;;9.00;6.50;;;;;21.65;45.56;100699.69;5058108;28;45646;-89
2023/07/02 11:07:56;;;;;;;;;17.00;13.25;;;;;21.71;45.23;100712.31;5055348;28;47229;-85
2023/07/02 11:10:23;;;;;;;;;16.00;14.25;;;;;21.76;45.30;100705.44;5058563;28;46144;-87
2023/07/02 11:12:49;;;;;;;;;14.25;13.25;;;;;21.79;44.41;100701.59;5059240;28;45558;-89
2023/07/02 11:15:17;;;;;;;;;16.00;10.50;;;;;21.84;44.50;100703.72;5059799;28;45669;-87
2023/07/02 11:21:09;;;;;;;;;16.75;14.25;;;;;21.97;44.59;100715.47;5055004;28;45655;-86
2023/07/02 11:23:35;;;;;;;;;14.75;14.25;;;;;22.03;43.65;100703.22;5071087;28;45809;-88
2023/07/02 11:26:02;;;;;;;;;16.25;14.75;;;;;22.06;43.53;100700.22;5058154;28;45754;-86
2023/07/02 11:28:30;;;;;;;;;14.00;12.00;;;;;22.08;43.48;100706.19;5056733;28;45858;-86
2023/07/02 11:30:58;;;;;;;;;14.50;12.75;;;;;22.10;42.91;100701.50;5054515;28;45618;-87
2023/07/02 11:33:36;;;;;;;;;18.75;15.50;;;;;22.09;43.01;100690.00;5056143;28;45603;-88
2023/07/02 11:36:03;;;;;;;;;15.75;15.75;;;;;22.15;43.03;100709.81;5056183;28;45754;-86
2023/07/02 11:38:28;;;;;;;;;18.25;17.25;;;;;22.17;42.55;100710.47;5055582;28;46286;-90
2023/07/02 11:40:54;;;;;;;;;18.25;14.50;;;;;22.10;42.77;100701.50;5055120;28;45789;-86
2023/07/02 11:43:19;;;;;;;;;15.00;14.00;;;;;22.08;42.35;100700.84;5055844;28;45680;-87
2023/07/02 11:45:44;;;;;;;;;9.50;9.00;;;;;22.05;42.37;100690.56;5054599;28;45610;-89
2023/07/02 11:51:31;;;;;;;;;18.75;14.75;;;;;22.00;42.01;100698.28;5055629;28;46135;-86
2023/07/02 11:53:57;;;;;;;;;16.50;15.00;;;;;22.04;41.60;100692.38;5055067;28;46309;-87
2023/07/02 11:56:24;;;;;;;;;15.50;14.00;;;;;22.11;41.59;100689.84;5054288;28;45632;-87
2023/07/02 11:58:52;;;;;;;;;9.50;5.75;;;;;22.21;41.72;100686.91;5054341;28;46808;-86
2023/07/02 12:01:18;;;;;;;;;19.50;16.50;;;;;22.28;41.39;100693.16;5055726;28;45689;-86
2023/07/02 12:03:44;;;;;;;;;15.75;14.75;;;;;22.34;41.15;100687.09;5056057;28;45588;-86
2023/07/02 12:06:09;;;;;;;;;13.75;11.25;;;;;22.35;40.93;100686.91;5055362;28;45738;-86
2023/07/02 12:08:35;;;;;;;;;17.00;12.50;;;;;22.40;40.58;100683.69;5055371;28;46257;-87
2023/07/02 12:11:00;;;;;;;;;14.25;13.00;;;;;22.46;40.33;100693.63;5056104;28;45567;-87
2023/07/02 12:13:26;;;;;;;;;6.50;6.50;;;;;22.50;40.62;100690.44;5053461;28;45846;-89
2023/07/02 12:15:51;;;;;;;;;13.50;10.75;;;;;22.57;40.04;100688.66;5056219;28;45711;-85
2023/07/02 12:21:38;;;;;;;;;14.00;11.75;;;;;22.68;39.66;100690.03;5057090;28;45982;-90
2023/07/02 12:24:08;;;;;;;;;15.00;11.50;;;;;22.71;39.22;100687.03;5056874;28;45643;-89
2023/07/02 12:26:34;;;;;;;;;14.00;12.50;;;;;22.79;39.54;100696.78;5056477;28;45674;-88